sensor_id;sensor_type;location;lat;lon;timestamp;pressure;altitude;pressure_sealevel;temperature
19102;BMP280;9683;49.028;12.064;2022-08-06T00:00:13;97607.69;;;22.91
19102;BMP280;9683;49.028;12.064;2022-08-06T00:02:41;97611.50;;;22.71
19102;BMP280;9683;49.028;12.064;2022-08-06T00:05:08;97610.91;;;22.50
19102;BMP280;9683;49.028;12.064;2022-08-06T00:07:35;97604.06;;;22.34
19102;BMP280;9683;49.028;12.064;2022-08-06T00:10:02;97603.66;;;22.22
19102;BMP280;9683;49.028;12.064;2022-08-06T00:12:29;97589.16;;;22.08
19102;BMP280;9683;49.028;12.064;2022-08-06T00:14:56;97589.13;;;22.13
19102;BMP280;9683;49.028;12.064;2022-08-06T00:17:22;97580.34;;;22.21
19102;BMP280;9683;49.028;12.064;2022-08-06T00:19:51;97585.78;;;22.39
19102;BMP280;9683;49.028;12.064;2022-08-06T00:22:18;97593.19;;;22.58
19102;BMP280;9683;49.028;12.064;2022-08-06T00:24:44;97610.41;;;22.72
19102;BMP280;9683;49.028;12.064;2022-08-06T00:27:11;97624.16;;;22.33
19102;BMP280;9683;49.028;12.064;2022-08-06T00:29:38;97628.34;;;21.97
19102;BMP280;9683;49.028;12.064;2022-08-06T00:32:05;97621.97;;;21.77
19102;BMP280;9683;49.028;12.064;2022-08-06T00:34:32;97623.66;;;21.73
19102;BMP280;9683;49.028;12.064;2022-08-06T00:37:00;97621.59;;;21.60
19102;BMP280;9683;49.028;12.064;2022-08-06T00:39:26;97620.31;;;21.53
19102;BMP280;9683;49.028;12.064;2022-08-06T00:41:53;97617.09;;;21.51
19102;BMP280;9683;49.028;12.064;2022-08-06T00:44:20;97627.41;;;21.43
19102;BMP280;9683;49.028;12.064;2022-08-06T00:46:47;97622.53;;;21.45
19102;BMP280;9683;49.028;12.064;2022-08-06T00:49:14;97634.50;;;21.39
19102;BMP280;9683;49.028;12.064;2022-08-06T00:51:41;97621.94;;;21.15
19102;BMP280;9683;49.028;12.064;2022-08-06T00:54:09;97627.97;;;21.01
19102;BMP280;9683;49.028;12.064;2022-08-06T00:56:36;97626.91;;;20.97
19102;BMP280;9683;49.028;12.064;2022-08-06T00:59:03;97631.50;;;20.97
19102;BMP280;9683;49.028;12.064;2022-08-06T01:01:30;97641.88;;;20.85
19102;BMP280;9683;49.028;12.064;2022-08-06T01:03:57;97641.72;;;20.56
19102;BMP280;9683;49.028;12.064;2022-08-06T01:06:23;97632.34;;;20.38
19102;BMP280;9683;49.028;12.064;2022-08-06T01:08:50;97633.16;;;20.39
19102;BMP280;9683;49.028;12.064;2022-08-06T01:11:18;97639.66;;;20.28
19102;BMP280;9683;49.028;12.064;2022-08-06T01:13:45;97643.50;;;20.06
19102;BMP280;9683;49.028;12.064;2022-08-06T01:16:23;97644.56;;;20.00
19102;BMP280;9683;49.028;12.064;2022-08-06T01:18:58;97637.00;;;20.07
19102;BMP280;9683;49.028;12.064;2022-08-06T01:21:49;97656.75;;;20.03
19102;BMP280;9683;49.028;12.064;2022-08-06T01:27:26;97663.25;;;19.77
19102;BMP280;9683;49.028;12.064;2022-08-06T01:29:57;97663.25;;;19.61
19102;BMP280;9683;49.028;12.064;2022-08-06T01:32:29;97681.84;;;19.22
19102;BMP280;9683;49.028;12.064;2022-08-06T01:35:01;97678.28;;;19.12
19102;BMP280;9683;49.028;12.064;2022-08-06T01:37:31;97672.56;;;18.98
19102;BMP280;9683;49.028;12.064;2022-08-06T01:40:00;97692.56;;;19.07
19102;BMP280;9683;49.028;12.064;2022-08-06T01:42:30;97687.72;;;19.04
19102;BMP280;9683;49.028;12.064;2022-08-06T01:45:00;97685.28;;;18.98
19102;BMP280;9683;49.028;12.064;2022-08-06T01:47:29;97670.63;;;18.78
19102;BMP280;9683;49.028;12.064;2022-08-06T01:50:00;97691.84;;;18.55
19102;BMP280;9683;49.028;12.064;2022-08-06T01:52:31;97687.22;;;18.50
19102;BMP280;9683;49.028;12.064;2022-08-06T01:54:59;97691.97;;;18.33
19102;BMP280;9683;49.028;12.064;2022-08-06T01:57:30;97695.72;;;18.27
19102;BMP280;9683;49.028;12.064;2022-08-06T02:00:00;97699.19;;;18.22
19102;BMP280;9683;49.028;12.064;2022-08-06T02:02:28;97689.47;;;18.16
19102;BMP280;9683;49.028;12.064;2022-08-06T02:04:57;97678.09;;;18.09
19102;BMP280;9683;49.028;12.064;2022-08-06T02:07:33;97681.06;;;18.08
19102;BMP280;9683;49.028;12.064;2022-08-06T02:10:03;97689.38;;;18.01
19102;BMP280;9683;49.028;12.064;2022-08-06T02:12:34;97694.94;;;17.90
19102;BMP280;9683;49.028;12.064;2022-08-06T02:15:06;97694.09;;;17.89
19102;BMP280;9683;49.028;12.064;2022-08-06T02:17:38;97693.00;;;17.80
19102;BMP280;9683;49.028;12.064;2022-08-06T02:20:08;97667.69;;;17.86
19102;BMP280;9683;49.028;12.064;2022-08-06T02:22:38;97669.38;;;17.97
19102;BMP280;9683;49.028;12.064;2022-08-06T02:25:08;97683.19;;;18.06
19102;BMP280;9683;49.028;12.064;2022-08-06T02:27:41;97695.34;;;18.08
19102;BMP280;9683;49.028;12.064;2022-08-06T02:30:11;97695.81;;;18.00
19102;BMP280;9683;49.028;12.064;2022-08-06T02:32:38;97694.69;;;17.91
19102;BMP280;9683;49.028;12.064;2022-08-06T02:35:06;97684.69;;;17.86
19102;BMP280;9683;49.028;12.064;2022-08-06T02:37:39;97691.88;;;17.76
19102;BMP280;9683;49.028;12.064;2022-08-06T02:40:09;97705.28;;;17.71
19102;BMP280;9683;49.028;12.064;2022-08-06T02:42:43;97701.03;;;17.75
19102;BMP280;9683;49.028;12.064;2022-08-06T02:45:15;97705.94;;;17.83
19102;BMP280;9683;49.028;12.064;2022-08-06T02:47:49;97705.22;;;17.93
19102;BMP280;9683;49.028;12.064;2022-08-06T02:50:18;97698.47;;;17.95
19102;BMP280;9683;49.028;12.064;2022-08-06T02:52:50;97706.59;;;18.00
19102;BMP280;9683;49.028;12.064;2022-08-06T02:55:21;97695.63;;;18.12
19102;BMP280;9683;49.028;12.064;2022-08-06T02:57:52;97716.13;;;18.13
19102;BMP280;9683;49.028;12.064;2022-08-06T03:00:20;97711.41;;;17.98
19102;BMP280;9683;49.028;12.064;2022-08-06T03:02:53;97722.97;;;17.94
19102;BMP280;9683;49.028;12.064;2022-08-06T03:05:22;97703.63;;;17.97
19102;BMP280;9683;49.028;12.064;2022-08-06T03:07:50;97720.03;;;17.95
19102;BMP280;9683;49.028;12.064;2022-08-06T03:10:20;97732.28;;;17.81
19102;BMP280;9683;49.028;12.064;2022-08-06T03:12:49;97741.97;;;17.77
19102;BMP280;9683;49.028;12.064;2022-08-06T03:15:18;97717.75;;;17.82
19102;BMP280;9683;49.028;12.064;2022-08-06T03:17:45;97713.91;;;17.73
19102;BMP280;9683;49.028;12.064;2022-08-06T03:20:16;97699.69;;;17.77
19102;BMP280;9683;49.028;12.064;2022-08-06T03:22:47;97721.22;;;17.77
19102;BMP280;9683;49.028;12.064;2022-08-06T03:25:15;97719.88;;;17.75
19102;BMP280;9683;49.028;12.064;2022-08-06T03:27:43;97725.75;;;17.72
19102;BMP280;9683;49.028;12.064;2022-08-06T03:30:13;97743.72;;;17.61
19102;BMP280;9683;49.028;12.064;2022-08-06T03:32:40;97743.19;;;17.64
19102;BMP280;9683;49.028;12.064;2022-08-06T03:35:08;97734.91;;;17.71
19102;BMP280;9683;49.028;12.064;2022-08-06T03:37:36;97732.59;;;17.84
19102;BMP280;9683;49.028;12.064;2022-08-06T03:40:04;97734.22;;;17.85
19102;BMP280;9683;49.028;12.064;2022-08-06T03:42:32;97735.41;;;17.68
19102;BMP280;9683;49.028;12.064;2022-08-06T03:44:59;97741.22;;;17.55
19102;BMP280;9683;49.028;12.064;2022-08-06T03:47:31;97747.72;;;17.59
19102;BMP280;9683;49.028;12.064;2022-08-06T03:50:04;97753.84;;;17.54
19102;BMP280;9683;49.028;12.064;2022-08-06T03:52:36;97735.78;;;17.50
19102;BMP280;9683;49.028;12.064;2022-08-06T03:55:06;97756.13;;;17.40
19102;BMP280;9683;49.028;12.064;2022-08-06T03:57:35;97752.84;;;17.38
19102;BMP280;9683;49.028;12.064;2022-08-06T04:00:06;97744.13;;;17.26
19102;BMP280;9683;49.028;12.064;2022-08-06T04:02:36;97758.97;;;17.29
19102;BMP280;9683;49.028;12.064;2022-08-06T04:05:04;97765.97;;;17.30
19102;BMP280;9683;49.028;12.064;2022-08-06T04:07:32;97771.91;;;17.32
19102;BMP280;9683;49.028;12.064;2022-08-06T04:09:59;97775.59;;;17.26
19102;BMP280;9683;49.028;12.064;2022-08-06T04:12:27;97769.09;;;17.22
19102;BMP280;9683;49.028;12.064;2022-08-06T04:14:55;97781.44;;;17.18
19102;BMP280;9683;49.028;12.064;2022-08-06T04:17:22;97758.34;;;17.22
19102;BMP280;9683;49.028;12.064;2022-08-06T04:19:51;97768.69;;;17.08
19102;BMP280;9683;49.028;12.064;2022-08-06T04:22:18;97782.69;;;17.10
19102;BMP280;9683;49.028;12.064;2022-08-06T04:24:44;97775.94;;;17.08
19102;BMP280;9683;49.028;12.064;2022-08-06T04:27:13;97792.25;;;17.01
19102;BMP280;9683;49.028;12.064;2022-08-06T04:29:42;97793.81;;;16.97
19102;BMP280;9683;49.028;12.064;2022-08-06T04:32:10;97795.84;;;17.07
19102;BMP280;9683;49.028;12.064;2022-08-06T04:34:41;97804.56;;;16.97
19102;BMP280;9683;49.028;12.064;2022-08-06T04:37:10;97809.03;;;16.86
19102;BMP280;9683;49.028;12.064;2022-08-06T04:39:38;97801.56;;;16.93
19102;BMP280;9683;49.028;12.064;2022-08-06T04:42:05;97805.59;;;16.91
19102;BMP280;9683;49.028;12.064;2022-08-06T04:44:33;97813.34;;;16.87
19102;BMP280;9683;49.028;12.064;2022-08-06T04:47:00;97807.78;;;16.94
19102;BMP280;9683;49.028;12.064;2022-08-06T04:49:28;97811.44;;;16.88
19102;BMP280;9683;49.028;12.064;2022-08-06T04:51:55;97811.78;;;16.91
19102;BMP280;9683;49.028;12.064;2022-08-06T04:54:23;97807.25;;;16.97
19102;BMP280;9683;49.028;12.064;2022-08-06T04:56:49;97811.34;;;17.00
19102;BMP280;9683;49.028;12.064;2022-08-06T04:59:16;97828.94;;;17.07
19102;BMP280;9683;49.028;12.064;2022-08-06T05:01:43;97836.88;;;17.19
19102;BMP280;9683;49.028;12.064;2022-08-06T05:04:10;97824.81;;;17.21
19102;BMP280;9683;49.028;12.064;2022-08-06T05:06:43;97825.50;;;17.33
19102;BMP280;9683;49.028;12.064;2022-08-06T05:09:18;97818.84;;;17.41
19102;BMP280;9683;49.028;12.064;2022-08-06T05:11:51;97829.84;;;17.39
19102;BMP280;9683;49.028;12.064;2022-08-06T05:14:22;97839.50;;;17.35
19102;BMP280;9683;49.028;12.064;2022-08-06T05:16:51;97829.03;;;17.39
19102;BMP280;9683;49.028;12.064;2022-08-06T05:19:26;97833.34;;;17.40
19102;BMP280;9683;49.028;12.064;2022-08-06T05:21:54;97840.06;;;17.37
19102;BMP280;9683;49.028;12.064;2022-08-06T05:24:21;97846.50;;;17.36
19102;BMP280;9683;49.028;12.064;2022-08-06T05:26:50;97834.53;;;17.49
19102;BMP280;9683;49.028;12.064;2022-08-06T05:29:20;97846.25;;;17.60
19102;BMP280;9683;49.028;12.064;2022-08-06T05:31:47;97841.59;;;17.55
19102;BMP280;9683;49.028;12.064;2022-08-06T05:34:14;97849.75;;;17.60
19102;BMP280;9683;49.028;12.064;2022-08-06T05:36:40;97858.84;;;17.54
19102;BMP280;9683;49.028;12.064;2022-08-06T05:39:07;97860.06;;;17.47
19102;BMP280;9683;49.028;12.064;2022-08-06T05:41:34;97860.50;;;17.38
19102;BMP280;9683;49.028;12.064;2022-08-06T05:44:02;97854.00;;;17.34
19102;BMP280;9683;49.028;12.064;2022-08-06T05:46:33;97866.41;;;17.35
19102;BMP280;9683;49.028;12.064;2022-08-06T05:49:04;97872.28;;;17.32
19102;BMP280;9683;49.028;12.064;2022-08-06T05:51:40;97862.97;;;17.40
19102;BMP280;9683;49.028;12.064;2022-08-06T05:54:13;97879.25;;;17.50
19102;BMP280;9683;49.028;12.064;2022-08-06T05:56:43;97864.22;;;17.54
19102;BMP280;9683;49.028;12.064;2022-08-06T05:59:17;97881.66;;;17.52
19102;BMP280;9683;49.028;12.064;2022-08-06T06:01:45;97876.44;;;17.62
19102;BMP280;9683;49.028;12.064;2022-08-06T06:04:13;97879.28;;;17.55
19102;BMP280;9683;49.028;12.064;2022-08-06T06:06:41;97875.94;;;17.65
19102;BMP280;9683;49.028;12.064;2022-08-06T06:09:09;97891.03;;;17.66
19102;BMP280;9683;49.028;12.064;2022-08-06T06:11:37;97894.34;;;17.73
19102;BMP280;9683;49.028;12.064;2022-08-06T06:14:04;97899.25;;;17.76
19102;BMP280;9683;49.028;12.064;2022-08-06T06:16:41;97905.09;;;17.73
19102;BMP280;9683;49.028;12.064;2022-08-06T06:19:20;97904.34;;;17.77
19102;BMP280;9683;49.028;12.064;2022-08-06T06:21:56;97902.25;;;17.84
19102;BMP280;9683;49.028;12.064;2022-08-06T06:24:30;97902.38;;;17.95
19102;BMP280;9683;49.028;12.064;2022-08-06T06:27:00;97907.47;;;17.91
19102;BMP280;9683;49.028;12.064;2022-08-06T06:29:37;97904.84;;;17.96
19102;BMP280;9683;49.028;12.064;2022-08-06T06:32:10;97903.91;;;18.12
19102;BMP280;9683;49.028;12.064;2022-08-06T06:34:46;97911.78;;;18.19
19102;BMP280;9683;49.028;12.064;2022-08-06T06:37:26;97903.28;;;18.32
19102;BMP280;9683;49.028;12.064;2022-08-06T06:40:05;97910.31;;;18.33
19102;BMP280;9683;49.028;12.064;2022-08-06T06:42:38;97918.00;;;18.46
19102;BMP280;9683;49.028;12.064;2022-08-06T06:45:12;97910.09;;;18.66
19102;BMP280;9683;49.028;12.064;2022-08-06T06:47:55;97915.47;;;18.66
19102;BMP280;9683;49.028;12.064;2022-08-06T06:50:27;97920.63;;;18.68
19102;BMP280;9683;49.028;12.064;2022-08-06T06:52:55;97918.22;;;18.71
19102;BMP280;9683;49.028;12.064;2022-08-06T06:55:27;97924.34;;;18.62
19102;BMP280;9683;49.028;12.064;2022-08-06T06:58:15;97919.03;;;18.72
19102;BMP280;9683;49.028;12.064;2022-08-06T07:00:44;97923.28;;;18.63
19102;BMP280;9683;49.028;12.064;2022-08-06T07:03:12;97930.91;;;18.71
19102;BMP280;9683;49.028;12.064;2022-08-06T07:05:42;97931.91;;;18.60
19102;BMP280;9683;49.028;12.064;2022-08-06T07:08:11;97932.72;;;18.65
19102;BMP280;9683;49.028;12.064;2022-08-06T07:10:39;97942.22;;;18.73
19102;BMP280;9683;49.028;12.064;2022-08-06T07:13:07;97949.69;;;18.61
19102;BMP280;9683;49.028;12.064;2022-08-06T07:15:36;97943.13;;;18.52
19102;BMP280;9683;49.028;12.064;2022-08-06T07:18:04;97938.31;;;18.54
19102;BMP280;9683;49.028;12.064;2022-08-06T07:20:33;97946.59;;;18.47
19102;BMP280;9683;49.028;12.064;2022-08-06T07:23:03;97941.19;;;18.47
19102;BMP280;9683;49.028;12.064;2022-08-06T07:25:33;97950.88;;;18.48
19102;BMP280;9683;49.028;12.064;2022-08-06T07:28:04;97940.03;;;18.38
19102;BMP280;9683;49.028;12.064;2022-08-06T07:30:31;97947.59;;;18.41
19102;BMP280;9683;49.028;12.064;2022-08-06T07:32:58;97939.44;;;18.36
19102;BMP280;9683;49.028;12.064;2022-08-06T07:35:25;97958.22;;;18.26
19102;BMP280;9683;49.028;12.064;2022-08-06T07:37:56;97944.94;;;18.19
19102;BMP280;9683;49.028;12.064;2022-08-06T07:40:25;97955.13;;;18.12
19102;BMP280;9683;49.028;12.064;2022-08-06T07:42:55;97966.03;;;18.01
19102;BMP280;9683;49.028;12.064;2022-08-06T07:45:27;97952.94;;;18.09
19102;BMP280;9683;49.028;12.064;2022-08-06T07:47:56;97962.25;;;18.02
19102;BMP280;9683;49.028;12.064;2022-08-06T07:50:24;97968.78;;;18.06
19102;BMP280;9683;49.028;12.064;2022-08-06T07:52:55;97974.06;;;18.22
19102;BMP280;9683;49.028;12.064;2022-08-06T07:55:22;97974.03;;;18.17
19102;BMP280;9683;49.028;12.064;2022-08-06T07:57:51;97963.63;;;18.26
19102;BMP280;9683;49.028;12.064;2022-08-06T08:00:18;97973.28;;;18.22
19102;BMP280;9683;49.028;12.064;2022-08-06T08:02:45;97973.66;;;18.30
19102;BMP280;9683;49.028;12.064;2022-08-06T08:05:32;97972.38;;;18.38
19102;BMP280;9683;49.028;12.064;2022-08-06T08:08:18;97972.84;;;18.57
19102;BMP280;9683;49.028;12.064;2022-08-06T08:10:44;97988.53;;;18.60
19102;BMP280;9683;49.028;12.064;2022-08-06T08:13:12;97983.50;;;18.47
19102;BMP280;9683;49.028;12.064;2022-08-06T08:15:40;97987.19;;;18.62
19102;BMP280;9683;49.028;12.064;2022-08-06T08:18:07;97992.00;;;18.60
19102;BMP280;9683;49.028;12.064;2022-08-06T08:20:37;97989.66;;;18.64
19102;BMP280;9683;49.028;12.064;2022-08-06T08:23:05;97999.19;;;18.76
19102;BMP280;9683;49.028;12.064;2022-08-06T08:25:34;97995.28;;;18.62
19102;BMP280;9683;49.028;12.064;2022-08-06T08:28:00;98005.00;;;18.63
19102;BMP280;9683;49.028;12.064;2022-08-06T08:30:27;98004.72;;;18.60
19102;BMP280;9683;49.028;12.064;2022-08-06T08:32:54;97994.97;;;18.59
19102;BMP280;9683;49.028;12.064;2022-08-06T08:35:21;98007.59;;;18.53
19102;BMP280;9683;49.028;12.064;2022-08-06T08:37:48;98005.25;;;18.62
19102;BMP280;9683;49.028;12.064;2022-08-06T08:40:14;98014.09;;;18.57
19102;BMP280;9683;49.028;12.064;2022-08-06T08:42:45;98028.34;;;18.53
19102;BMP280;9683;49.028;12.064;2022-08-06T08:45:12;98013.03;;;18.58
19102;BMP280;9683;49.028;12.064;2022-08-06T08:47:44;98036.63;;;18.73
19102;BMP280;9683;49.028;12.064;2022-08-06T08:50:11;98016.16;;;18.72
19102;BMP280;9683;49.028;12.064;2022-08-06T08:52:39;98020.00;;;18.81
19102;BMP280;9683;49.028;12.064;2022-08-06T08:55:11;98025.91;;;18.78
19102;BMP280;9683;49.028;12.064;2022-08-06T08:57:40;98020.00;;;18.81
19102;BMP280;9683;49.028;12.064;2022-08-06T09:00:10;98020.78;;;18.76
19102;BMP280;9683;49.028;12.064;2022-08-06T09:02:37;98028.47;;;18.63
19102;BMP280;9683;49.028;12.064;2022-08-06T09:05:05;98017.47;;;18.48
19102;BMP280;9683;49.028;12.064;2022-08-06T09:07:33;98023.25;;;18.56
19102;BMP280;9683;49.028;12.064;2022-08-06T09:10:00;98014.72;;;18.64
19102;BMP280;9683;49.028;12.064;2022-08-06T09:12:26;98023.63;;;18.65
19102;BMP280;9683;49.028;12.064;2022-08-06T09:14:53;98013.81;;;18.81
19102;BMP280;9683;49.028;12.064;2022-08-06T09:17:21;98018.44;;;18.90
19102;BMP280;9683;49.028;12.064;2022-08-06T09:19:50;98021.63;;;18.82
19102;BMP280;9683;49.028;12.064;2022-08-06T09:22:17;98023.31;;;18.88
19102;BMP280;9683;49.028;12.064;2022-08-06T09:24:43;98026.53;;;18.90
19102;BMP280;9683;49.028;12.064;2022-08-06T09:27:12;98020.13;;;18.96
19102;BMP280;9683;49.028;12.064;2022-08-06T09:29:48;98018.56;;;19.00
19102;BMP280;9683;49.028;12.064;2022-08-06T09:32:36;98015.13;;;19.15
19102;BMP280;9683;49.028;12.064;2022-08-06T09:35:17;98022.84;;;19.33
19102;BMP280;9683;49.028;12.064;2022-08-06T09:37:45;98019.72;;;19.46
19102;BMP280;9683;49.028;12.064;2022-08-06T09:40:12;98018.75;;;19.62
19102;BMP280;9683;49.028;12.064;2022-08-06T09:42:41;98017.81;;;19.89
19102;BMP280;9683;49.028;12.064;2022-08-06T09:45:10;98026.31;;;20.18
19102;BMP280;9683;49.028;12.064;2022-08-06T09:47:39;98040.28;;;19.99
19102;BMP280;9683;49.028;12.064;2022-08-06T09:50:07;98035.69;;;19.95
19102;BMP280;9683;49.028;12.064;2022-08-06T09:52:34;98024.56;;;19.86
19102;BMP280;9683;49.028;12.064;2022-08-06T09:55:01;98031.56;;;19.82
19102;BMP280;9683;49.028;12.064;2022-08-06T09:57:41;98022.19;;;19.95
19102;BMP280;9683;49.028;12.064;2022-08-06T10:00:09;98033.31;;;20.13
19102;BMP280;9683;49.028;12.064;2022-08-06T10:02:36;98033.63;;;20.22
19102;BMP280;9683;49.028;12.064;2022-08-06T10:05:10;98038.03;;;20.38
19102;BMP280;9683;49.028;12.064;2022-08-06T10:07:37;98028.59;;;20.51
19102;BMP280;9683;49.028;12.064;2022-08-06T10:10:05;98018.66;;;20.77
19102;BMP280;9683;49.028;12.064;2022-08-06T10:12:32;98039.47;;;20.76
19102;BMP280;9683;49.028;12.064;2022-08-06T10:14:59;98033.00;;;20.77
19102;BMP280;9683;49.028;12.064;2022-08-06T10:17:27;98032.16;;;20.67
19102;BMP280;9683;49.028;12.064;2022-08-06T10:20:06;98027.56;;;20.77
19102;BMP280;9683;49.028;12.064;2022-08-06T10:22:34;98026.25;;;20.90
19102;BMP280;9683;49.028;12.064;2022-08-06T10:25:03;98024.34;;;21.11
19102;BMP280;9683;49.028;12.064;2022-08-06T10:27:33;98025.19;;;21.36
19102;BMP280;9683;49.028;12.064;2022-08-06T10:30:04;98027.03;;;21.51
19102;BMP280;9683;49.028;12.064;2022-08-06T10:32:36;98015.38;;;21.66
19102;BMP280;9683;49.028;12.064;2022-08-06T10:35:05;98013.47;;;21.66
19102;BMP280;9683;49.028;12.064;2022-08-06T10:37:36;98012.63;;;21.81
19102;BMP280;9683;49.028;12.064;2022-08-06T10:40:05;98017.78;;;21.82
19102;BMP280;9683;49.028;12.064;2022-08-06T10:42:33;98015.59;;;21.84
19102;BMP280;9683;49.028;12.064;2022-08-06T10:45:01;98016.66;;;22.04
19102;BMP280;9683;49.028;12.064;2022-08-06T10:47:28;98013.13;;;21.98
19102;BMP280;9683;49.028;12.064;2022-08-06T10:49:56;98008.72;;;22.17
19102;BMP280;9683;49.028;12.064;2022-08-06T10:52:24;98014.19;;;22.07
19102;BMP280;9683;49.028;12.064;2022-08-06T10:54:52;98018.09;;;21.71
19102;BMP280;9683;49.028;12.064;2022-08-06T10:57:22;98013.16;;;21.88
19102;BMP280;9683;49.028;12.064;2022-08-06T10:59:48;98019.09;;;21.85
19102;BMP280;9683;49.028;12.064;2022-08-06T11:02:22;98020.47;;;21.82
19102;BMP280;9683;49.028;12.064;2022-08-06T11:04:56;98019.38;;;21.93
19102;BMP280;9683;49.028;12.064;2022-08-06T11:07:46;98017.22;;;21.96
19102;BMP280;9683;49.028;12.064;2022-08-06T11:10:40;98009.00;;;22.11
19102;BMP280;9683;49.028;12.064;2022-08-06T11:13:18;98018.75;;;22.17
19102;BMP280;9683;49.028;12.064;2022-08-06T11:15:46;98003.00;;;22.24
19102;BMP280;9683;49.028;12.064;2022-08-06T11:18:13;98009.94;;;22.40
19102;BMP280;9683;49.028;12.064;2022-08-06T11:20:41;98009.66;;;22.47
19102;BMP280;9683;49.028;12.064;2022-08-06T11:23:26;98010.19;;;22.49
19102;BMP280;9683;49.028;12.064;2022-08-06T11:25:56;97992.69;;;22.65
19102;BMP280;9683;49.028;12.064;2022-08-06T11:28:57;97991.22;;;22.88
19102;BMP280;9683;49.028;12.064;2022-08-06T11:31:31;98007.06;;;22.75
19102;BMP280;9683;49.028;12.064;2022-08-06T11:33:59;97984.78;;;22.73
19102;BMP280;9683;49.028;12.064;2022-08-06T11:36:28;97988.53;;;22.82
19102;BMP280;9683;49.028;12.064;2022-08-06T11:39:08;97990.03;;;22.99
19102;BMP280;9683;49.028;12.064;2022-08-06T11:41:44;97990.38;;;22.92
19102;BMP280;9683;49.028;12.064;2022-08-06T11:44:11;98002.13;;;22.77
19102;BMP280;9683;49.028;12.064;2022-08-06T11:46:41;97989.22;;;22.59
19102;BMP280;9683;49.028;12.064;2022-08-06T11:49:12;97981.91;;;22.55
19102;BMP280;9683;49.028;12.064;2022-08-06T11:51:41;97972.75;;;22.46
19102;BMP280;9683;49.028;12.064;2022-08-06T11:54:10;97987.16;;;22.41
19102;BMP280;9683;49.028;12.064;2022-08-06T11:59:44;97996.09;;;22.47
19102;BMP280;9683;49.028;12.064;2022-08-06T12:02:13;97983.88;;;22.44
19102;BMP280;9683;49.028;12.064;2022-08-06T12:04:40;97976.69;;;22.68
19102;BMP280;9683;49.028;12.064;2022-08-06T12:07:15;97981.94;;;22.94
19102;BMP280;9683;49.028;12.064;2022-08-06T12:09:42;97965.50;;;22.75
19102;BMP280;9683;49.028;12.064;2022-08-06T12:12:34;97981.84;;;22.70
19102;BMP280;9683;49.028;12.064;2022-08-06T12:15:36;97979.22;;;22.50
19102;BMP280;9683;49.028;12.064;2022-08-06T12:18:03;97980.56;;;22.52
19102;BMP280;9683;49.028;12.064;2022-08-06T12:20:32;97974.22;;;22.67
19102;BMP280;9683;49.028;12.064;2022-08-06T12:23:01;97975.59;;;22.69
19102;BMP280;9683;49.028;12.064;2022-08-06T12:25:32;97968.25;;;22.65
19102;BMP280;9683;49.028;12.064;2022-08-06T12:27:59;97977.50;;;22.69
19102;BMP280;9683;49.028;12.064;2022-08-06T12:30:39;97969.47;;;22.88
19102;BMP280;9683;49.028;12.064;2022-08-06T12:33:07;97976.50;;;22.94
19102;BMP280;9683;49.028;12.064;2022-08-06T12:35:34;97972.84;;;23.08
19102;BMP280;9683;49.028;12.064;2022-08-06T12:38:01;97969.69;;;23.25
19102;BMP280;9683;49.028;12.064;2022-08-06T12:40:28;97963.75;;;23.52
19102;BMP280;9683;49.028;12.064;2022-08-06T12:43:08;97965.44;;;23.71
19102;BMP280;9683;49.028;12.064;2022-08-06T12:45:37;97967.44;;;23.85
19102;BMP280;9683;49.028;12.064;2022-08-06T12:48:07;97962.25;;;23.88
19102;BMP280;9683;49.028;12.064;2022-08-06T12:50:37;97963.22;;;23.97
19102;BMP280;9683;49.028;12.064;2022-08-06T12:53:07;97963.00;;;24.12
19102;BMP280;9683;49.028;12.064;2022-08-06T12:55:40;97953.72;;;24.37
19102;BMP280;9683;49.028;12.064;2022-08-06T12:58:08;97953.25;;;24.67
19102;BMP280;9683;49.028;12.064;2022-08-06T13:00:39;97955.75;;;25.01
19102;BMP280;9683;49.028;12.064;2022-08-06T13:03:07;97958.44;;;25.20
19102;BMP280;9683;49.028;12.064;2022-08-06T13:05:37;97959.47;;;25.38
19102;BMP280;9683;49.028;12.064;2022-08-06T13:08:05;97959.72;;;25.23
19102;BMP280;9683;49.028;12.064;2022-08-06T13:10:31;97949.06;;;24.94
19102;BMP280;9683;49.028;12.064;2022-08-06T13:13:03;97953.56;;;24.66
19102;BMP280;9683;49.028;12.064;2022-08-06T13:15:31;97949.72;;;24.67
19102;BMP280;9683;49.028;12.064;2022-08-06T13:18:04;97947.81;;;24.86
19102;BMP280;9683;49.028;12.064;2022-08-06T13:20:38;97937.09;;;25.22
19102;BMP280;9683;49.028;12.064;2022-08-06T13:23:06;97936.78;;;25.56
19102;BMP280;9683;49.028;12.064;2022-08-06T13:25:43;97953.94;;;25.97
19102;BMP280;9683;49.028;12.064;2022-08-06T13:28:10;97936.44;;;26.26
19102;BMP280;9683;49.028;12.064;2022-08-06T13:30:39;97934.34;;;26.45
19102;BMP280;9683;49.028;12.064;2022-08-06T13:33:16;97933.91;;;26.52
19102;BMP280;9683;49.028;12.064;2022-08-06T13:35:43;97933.25;;;26.46
19102;BMP280;9683;49.028;12.064;2022-08-06T13:38:11;97934.66;;;26.43
19102;BMP280;9683;49.028;12.064;2022-08-06T13:40:40;97926.13;;;26.59
19102;BMP280;9683;49.028;12.064;2022-08-06T13:43:09;97925.63;;;26.79
19102;BMP280;9683;49.028;12.064;2022-08-06T13:45:37;97927.00;;;26.90
19102;BMP280;9683;49.028;12.064;2022-08-06T13:48:04;97918.84;;;26.99
19102;BMP280;9683;49.028;12.064;2022-08-06T13:50:34;97917.00;;;26.85
19102;BMP280;9683;49.028;12.064;2022-08-06T13:53:01;97915.66;;;26.97
19102;BMP280;9683;49.028;12.064;2022-08-06T13:55:28;97919.13;;;27.19
19102;BMP280;9683;49.028;12.064;2022-08-06T13:57:55;97913.38;;;27.21
19102;BMP280;9683;49.028;12.064;2022-08-06T14:00:23;97909.00;;;26.89
19102;BMP280;9683;49.028;12.064;2022-08-06T14:02:50;97908.34;;;26.70
19102;BMP280;9683;49.028;12.064;2022-08-06T14:05:17;97908.28;;;26.83
19102;BMP280;9683;49.028;12.064;2022-08-06T14:07:45;97913.63;;;27.11
19102;BMP280;9683;49.028;12.064;2022-08-06T14:10:12;97911.47;;;27.30
19102;BMP280;9683;49.028;12.064;2022-08-06T14:12:39;97911.56;;;27.16
19102;BMP280;9683;49.028;12.064;2022-08-06T14:15:06;97910.22;;;27.05
19102;BMP280;9683;49.028;12.064;2022-08-06T14:17:33;97899.50;;;27.17
19102;BMP280;9683;49.028;12.064;2022-08-06T14:20:00;97900.09;;;27.45
19102;BMP280;9683;49.028;12.064;2022-08-06T14:22:28;97908.44;;;27.71
19102;BMP280;9683;49.028;12.064;2022-08-06T14:24:56;97904.06;;;27.61
19102;BMP280;9683;49.028;12.064;2022-08-06T14:27:22;97903.09;;;27.66
19102;BMP280;9683;49.028;12.064;2022-08-06T14:29:49;97903.16;;;27.83